Time;durP1;ratioP1;P1;durP2;ratioP2;P2;SDS_P1;SDS_P2;PMS_P1;PMS_P2;Temp;Humidity;BMP_temperature;BMP_pressure;BME280_temperature;BME280_humidity;BME280_pressure;Samples;Min_cycle;Max_cycle;Signal;HPM_P1;HPM_P2
2023/04/28 00:02:31;;;;;;;19.80;11.70;;;;;;;2.03;72.44;100321.09;218157;1258;140330;-67
2023/04/28 00:07:34;;;;;;;27.00;14.40;;;;;;;1.99;72.59;100314.31;218055;1258;140994;-67
2023/04/28 00:12:37;;;;;;;21.80;13.20;;;;;;;2.02;72.86;100310.30;217922;1257;140322;-69
2023/04/28 00:17:41;;;;;;;19.60;13.00;;;;;;;1.98;73.01;100314.94;219139;1260;140669;-68
2023/04/28 00:22:45;;;;;;;23.90;14.10;;;;;;;1.84;72.83;100315.55;218537;1257;140986;-67
2023/04/28 00:27:48;;;;;;;24.00;13.90;;;;;;;1.73;72.46;100317.96;218401;1257;141235;-67
2023/04/28 00:32:51;;;;;;;20.10;11.70;;;;;;;1.64;72.75;100320.48;217915;1256;140630;-67
2023/04/28 00:37:53;;;;;;;19.00;11.60;;;;;;;1.45;72.73;100322.36;219074;1256;144792;-67
2023/04/28 00:42:56;;;;;;;30.70;15.30;;;;;;;1.34;72.84;100326.73;218884;1257;140594;-69
2023/04/28 00:48:00;;;;;;;22.20;11.40;;;;;;;1.27;72.94;100329.21;217823;1257;140198;-68
2023/04/28 00:53:02;;;;;;;23.70;13.30;;;;;;;1.11;72.58;100327.05;218228;1257;141610;-67
2023/04/28 00:58:06;;;;;;;23.40;13.10;;;;;;;0.98;73.10;100327.96;217683;1260;140321;-66
2023/04/28 01:03:08;;;;;;;24.30;13.30;;;;;;;0.93;73.52;100326.80;218454;1257;140569;-68
2023/04/28 01:08:11;;;;;;;23.70;13.00;;;;;;;0.85;73.33;100332.55;220019;1256;140171;-68
2023/04/28 01:13:14;;;;;;;28.60;14.90;;;;;;;0.75;73.36;100331.58;219345;1255;140305;-67
2023/04/28 01:18:18;;;;;;;26.00;16.00;;;;;;;0.73;73.30;100333.61;218627;1257;140213;-68
2023/04/28 01:23:21;;;;;;;27.40;15.10;;;;;;;0.71;73.69;100334.27;218322;1256;141855;-68
2023/04/28 01:28:24;;;;;;;29.80;16.80;;;;;;;0.61;73.53;100336.34;218613;1257;510827;-68
2023/04/28 01:33:27;;;;;;;26.30;14.50;;;;;;;0.49;73.67;100338.96;218127;1256;140684;-68
2023/04/28 01:38:29;;;;;;;24.20;15.20;;;;;;;0.45;73.72;100333.84;218029;1257;139962;-67
2023/04/28 01:43:32;;;;;;;27.30;16.30;;;;;;;0.36;73.91;100334.34;218329;1257;140820;-66
2023/04/28 01:48:35;;;;;;;26.70;17.50;;;;;;;0.27;74.20;100332.69;217833;1257;141082;-66
2023/04/28 01:53:37;;;;;;;22.20;13.80;;;;;;;0.20;74.13;100330.87;218167;1257;140749;-66
2023/04/28 01:58:39;;;;;;;28.10;15.40;;;;;;;0.10;74.08;100333.13;218162;1260;139754;-65
2023/04/28 02:03:43;;;;;;;25.40;15.10;;;;;;;0.04;74.32;100337.09;217817;1260;141308;-66
2023/04/28 02:08:47;;;;;;;22.40;14.90;;;;;;;0.02;74.97;100335.92;217855;1257;142611;-65
2023/04/28 02:13:50;;;;;;;22.10;15.60;;;;;;;-0.00;74.83;100339.59;218015;1259;140219;-66
2023/04/28 02:18:53;;;;;;;20.80;15.10;;;;;;;-0.06;74.78;100333.50;218486;1257;140053;-65
2023/04/28 02:23:57;;;;;;;24.50;13.30;;;;;;;-0.08;74.94;100331.67;217732;1256;141284;-65
2023/04/28 02:29:03;;;;;;;27.50;18.50;;;;;;;-0.17;74.70;100330.61;218791;1256;141117;-64
2023/04/28 02:34:06;;;;;;;27.40;15.00;;;;;;;-0.23;74.93;100331.59;218124;1257;140641;-66
2023/04/28 02:39:09;;;;;;;25.30;15.60;;;;;;;-0.30;75.00;100335.96;217783;1257;139967;-66
2023/04/28 02:44:13;;;;;;;31.10;18.10;;;;;;;-0.34;75.49;100338.27;218401;1257;140698;-66
2023/04/28 02:49:18;;;;;;;33.30;17.90;;;;;;;-0.40;75.40;100335.27;219425;1256;141381;-66
2023/04/28 02:54:26;;;;;;;23.60;14.40;;;;;;;-0.44;75.35;100338.33;220395;1256;141058;-67
2023/04/28 02:59:30;;;;;;;27.00;16.40;;;;;;;-0.53;75.30;100340.75;218353;1257;142031;-66
2023/04/28 03:04:33;;;;;;;20.80;11.10;;;;;;;-0.61;75.22;100341.02;218702;1257;141357;-66
2023/04/28 03:09:36;;;;;;;22.10;13.20;;;;;;;-0.66;75.55;100335.46;219331;1256;140494;-66
2023/04/28 03:14:43;;;;;;;23.40;15.00;;;;;;;-0.70;75.63;100336.61;219609;1256;142695;-66
2023/04/28 03:19:45;;;;;;;31.30;16.50;;;;;;;-0.73;75.80;100334.37;219083;1256;142685;-65
2023/04/28 03:24:48;;;;;;;28.80;14.90;;;;;;;-0.78;76.03;100334.83;217707;1257;140355;-63
2023/04/28 03:29:50;;;;;;;22.00;15.20;;;;;;;-0.75;76.22;100339.78;217727;1259;140662;-64
2023/04/28 03:34:54;;;;;;;22.30;14.60;;;;;;;-0.66;76.76;100340.00;217725;1259;140274;-64
2023/04/28 03:39:56;;;;;;;29.50;17.80;;;;;;;-0.50;76.50;100343.92;217853;1260;140662;-66
2023/04/28 03:44:58;;;;;;;26.80;14.70;;;;;;;-0.35;76.31;100344.83;217768;1257;140340;-67
2023/04/28 03:50:01;;;;;;;30.00;15.60;;;;;;;-0.07;76.27;100346.58;219036;1257;140227;-66
2023/04/28 03:55:04;;;;;;;21.90;15.00;;;;;;;0.35;75.77;100344.30;218176;1257;139988;-64
2023/04/28 04:00:07;;;;;;;21.10;12.80;;;;;;;1.14;75.48;100339.50;217608;1258;140190;-63
2023/04/28 04:05:10;;;;;;;21.20;13.20;;;;;;;1.98;74.75;100340.87;218602;1256;140466;-63
2023/04/28 04:10:14;;;;;;;22.70;13.10;;;;;;;2.35;73.69;100341.08;218227;1256;139917;-64
2023/04/28 04:15:16;;;;;;;24.50;13.70;;;;;;;1.93;73.06;100338.24;218292;1256;140302;-64
2023/04/28 04:20:21;;;;;;;24.00;13.50;;;;;;;1.70;73.38;100344.64;217634;1259;140110;-63
2023/04/28 04:25:23;;;;;;;19.00;13.80;;;;;;;1.72;73.87;100345.91;217896;1256;141321;-64
2023/04/28 04:30:26;;;;;;;20.60;16.70;;;;;;;1.98;73.73;100348.79;218686;1257;140739;-64
2023/04/28 04:35:30;;;;;;;26.60;16.30;;;;;;;2.20;74.60;100346.70;218338;1256;141477;-64
2023/04/28 04:40:34;;;;;;;41.00;18.70;;;;;;;2.49;74.55;100351.02;218748;1256;140036;-65
2023/04/28 04:45:37;;;;;;;34.80;20.00;;;;;;;2.77;74.44;100348.84;218269;1257;142424;-66
2023/04/28 04:50:41;;;;;;;32.90;18.60;;;;;;;3.06;74.41;100352.83;217701;1259;140671;-66
2023/04/28 04:55:43;;;;;;;31.80;18.90;;;;;;;3.30;73.99;100348.17;220619;1256;141077;-66
2023/04/28 05:00:46;;;;;;;34.50;20.40;;;;;;;3.51;73.99;100346.73;219818;1256;141349;-64
2023/04/28 05:05:50;;;;;;;29.70;19.40;;;;;;;3.84;74.24;100349.11;220301;1256;141258;-66
2023/04/28 05:10:53;;;;;;;31.10;17.80;;;;;;;4.21;74.04;100348.81;219967;1256;140954;-68
2023/04/28 05:15:56;;;;;;;29.50;19.30;;;;;;;4.51;73.90;100347.25;218839;1256;140400;-69
2023/04/28 05:21:00;;;;;;;24.50;17.50;;;;;;;4.91;73.84;100344.73;219198;1257;141095;-67
2023/04/28 05:26:04;;;;;;;25.80;16.20;;;;;;;5.39;73.55;100341.30;218916;1256;140470;-70
2023/04/28 05:31:06;;;;;;;24.30;17.20;;;;;;;5.59;72.98;100338.77;218787;1256;140719;-67
2023/04/28 05:36:10;;;;;;;33.00;21.90;;;;;;;5.65;72.05;100336.57;217610;1257;140221;-68
2023/04/28 05:41:14;;;;;;;26.50;19.00;;;;;;;5.94;71.92;100335.70;217674;1256;140109;-67
2023/04/28 05:46:17;;;;;;;25.10;17.50;;;;;;;7.00;71.43;100337.50;220231;1256;140164;-68
2023/04/28 05:51:34;;;;;;;28.20;18.60;;;;;;;8.34;69.07;100336.33;220372;1256;140753;-69
2023/04/28 05:56:37;;;;;;;26.00;18.30;;;;;;;8.25;69.56;100341.63;219501;1256;140373;-67
2023/04/28 06:01:42;;;;;;;21.80;16.30;;;;;;;8.62;70.17;100332.41;218528;1256;140035;-66
2023/04/28 06:06:46;;;;;;;25.20;15.30;;;;;;;9.02;69.44;100332.07;217595;1257;140718;-66
2023/04/28 06:11:50;;;;;;;19.20;14.70;;;;;;;9.14;68.57;100326.88;218195;1256;141069;-65
2023/04/28 06:16:54;;;;;;;24.90;17.60;;;;;;;9.28;67.67;100329.38;217633;1256;140126;-66
2023/04/28 06:21:56;;;;;;;23.00;16.70;;;;;;;9.45;66.98;100329.73;217534;1257;140557;-66
2023/04/28 06:27:00;;;;;;;17.60;14.20;;;;;;;9.64;66.19;100327.39;218140;1257;140499;-67
2023/04/28 06:32:03;;;;;;;21.60;12.80;;;;;;;9.90;65.84;100321.79;217740;1257;140629;-67
2023/04/28 06:37:06;;;;;;;14.20;9.10;;;;;;;10.20;65.11;100323.95;219337;1256;140969;-68
2023/04/28 06:42:10;;;;;;;16.00;10.30;;;;;;;10.53;63.48;100325.63;217725;1257;139503;-66
2023/04/28 06:47:13;;;;;;;11.90;9.30;;;;;;;10.96;63.44;100325.48;220377;1256;139994;-68
2023/04/28 06:52:16;;;;;;;15.20;10.50;;;;;;;11.89;62.93;100328.57;219167;1256;141885;-69
2023/04/28 06:57:19;;;;;;;9.60;6.10;;;;;;;13.01;61.82;100321.85;218189;1256;140468;-72
2023/04/28 07:02:23;;;;;;;11.60;6.90;;;;;;;14.35;59.57;100310.22;220351;1256;139975;-67
2023/04/28 07:07:26;;;;;;;8.00;6.90;;;;;;;15.25;57.13;100313.28;220511;1256;143604;-69
2023/04/28 07:12:29;;;;;;;6.40;5.10;;;;;;;15.84;56.14;100310.64;220456;1256;139909;-69
2023/04/28 07:17:32;;;;;;;6.70;4.60;;;;;;;16.13;54.36;100306.96;219964;1256;139146;-68
2023/04/28 07:22:37;;;;;;;5.70;3.30;;;;;;;16.09;52.62;100302.90;219029;1256;139369;-67
2023/04/28 07:27:41;;;;;;;;;;;;;;;16.14;51.15;100298.69;218924;1256;141249;-67
2023/04/28 07:32:45;;;;;;;9.30;5.20;;;;;;;16.13;50.99;100296.96;217995;1256;126223;-69
2023/04/28 07:37:48;;;;;;;6.90;4.80;;;;;;;16.33;51.11;100289.67;217911;1257;140048;-65
2023/04/28 07:42:52;;;;;;;6.90;4.70;;;;;;;16.57;50.43;100284.13;217830;1256;139695;-66
2023/04/28 07:47:55;;;;;;;6.40;3.50;;;;;;;16.85;49.58;100280.90;217939;1259;140262;-68
2023/04/28 07:52:58;;;;;;;4.30;3.90;;;;;;;16.64;48.66;100277.41;218876;1257;139747;-75
2023/04/28 07:58:01;;;;;;;6.00;4.20;;;;;;;16.38;48.28;100278.84;218655;1256;139092;-68
2023/04/28 08:03:04;;;;;;;10.20;5.40;;;;;;;16.16;47.59;100275.30;218057;1257;140977;-69
2023/04/28 08:08:07;;;;;;;9.10;6.70;;;;;;;16.07;48.16;100271.74;218196;1257;139390;-69
2023/04/28 08:13:11;;;;;;;6.70;5.10;;;;;;;15.88;47.01;100272.70;217795;1257;141305;-66
2023/04/28 08:18:13;;;;;;;5.20;4.40;;;;;;;15.38;46.84;100269.85;217879;1257;140840;-73
2023/04/28 08:23:16;;;;;;;8.90;4.40;;;;;;;15.57;47.13;100263.72;218123;1256;140433;-70
2023/04/28 08:28:18;;;;;;;6.30;4.40;;;;;;;15.33;47.45;100259.98;218884;1256;139438;-70
2023/04/28 08:33:22;;;;;;;7.70;4.80;;;;;;;15.85;48.12;100255.48;217799;1259;140387;-68
2023/04/28 08:38:27;;;;;;;5.00;4.00;;;;;;;16.40;47.38;100247.80;218923;1257;138943;-68
2023/04/28 08:43:34;;;;;;;4.90;4.20;;;;;;;16.67;47.14;100241.72;219199;1256;140012;-71
2023/04/28 08:48:47;;;;;;;7.80;5.00;;;;;;;16.46;44.33;100237.98;219827;1256;140097;-77
2023/04/28 08:53:53;;;;;;;6.80;5.40;;;;;;;15.87;44.17;100240.50;219539;1256;139876;-66
2023/04/28 08:59:04;;;;;;;5.50;4.80;;;;;;;16.14;45.74;100229.94;220462;1256;141222;-69
2023/04/28 09:04:07;;;;;;;5.80;3.70;;;;;;;16.43;45.44;100224.69;218909;1259;140597;-69
2023/04/28 09:09:24;;;;;;;6.00;5.40;;;;;;;16.45;44.71;100219.95;219186;1256;139614;-69
2023/04/28 09:14:29;;;;;;;5.20;4.70;;;;;;;16.22;44.52;100215.63;219293;1259;140671;-69
2023/04/28 09:19:36;;;;;;;9.00;5.00;;;;;;;16.46;45.24;100208.23;219549;1257;141573;-70
2023/04/28 09:24:42;;;;;;;10.50;4.40;;;;;;;16.68;45.14;100200.65;217967;1257;139461;-72
2023/04/28 09:29:53;;;;;;;12.50;6.30;;;;;;;16.98;45.12;100201.29;218230;1257;140855;-69
2023/04/28 09:34:58;;;;;;;6.30;5.60;;;;;;;16.89;43.11;100197.50;217825;1257;140172;-68
2023/04/28 09:40:08;;;;;;;4.10;3.70;;;;;;;16.59;42.80;100195.91;217401;1256;141733;-68
2023/04/28 09:45:13;;;;;;;6.40;4.20;;;;;;;16.48;43.50;100184.98;217974;1257;142019;-69
2023/04/28 09:50:17;;;;;;;5.50;4.90;;;;;;;16.79;43.39;100176.68;217380;1259;139459;-69
2023/04/28 09:55:20;;;;;;;8.10;4.60;;;;;;;16.46;41.95;100175.02;217472;1257;140316;-73
2023/04/28 10:00:23;;;;;;;4.80;4.40;;;;;;;16.38;42.89;100160.73;218139;1259;140097;-67
2023/04/28 10:05:27;;;;;;;9.10;6.20;;;;;;;16.58;42.62;100152.67;217652;1259;140515;-69
2023/04/28 10:10:37;;;;;;;7.10;5.40;;;;;;;16.74;42.86;100145.55;217635;1259;141030;-72
2023/04/28 10:15:42;;;;;;;10.40;5.50;;;;;;;16.82;42.40;100141.05;218697;1257;139096;-76
2023/04/28 10:20:48;;;;;;;6.60;5.90;;;;;;;17.21;42.66;100133.07;217754;1259;140692;-82
2023/04/28 10:25:55;;;;;;;;;;;;;;;17.13;42.12;100131.45;217814;1256;139513;-73
2023/04/28 10:31:22;;;;;;;8.40;5.30;;;;;;;17.27;42.19;100116.20;220418;1257;126281;-70
2023/04/28 10:36:53;;;;;;;9.30;5.70;;;;;;;17.63;42.21;100115.77;218470;1259;139585;-69
2023/04/28 10:41:56;;;;;;;6.20;5.60;;;;;;;17.30;41.37;100113.99;218276;1257;140098;-72
2023/04/28 10:47:03;;;;;;;8.60;7.00;;;;;;;16.80;41.18;100111.31;220408;1257;140072;-70
2023/04/28 10:52:31;;;;;;;5.90;5.30;;;;;;;16.62;41.36;100100.16;219858;1257;140913;-69
2023/04/28 10:57:36;;;;;;;7.20;6.40;;;;;;;16.43;41.23;100092.77;220392;1256;140082;-69
2023/04/28 11:02:39;;;;;;;6.20;5.10;;;;;;;16.16;41.22;100092.80;218678;1257;141394;-69
2023/04/28 11:08:25;;;;;;;10.40;7.70;;;;;;;16.42;41.84;100087.55;218483;1257;139182;-70
2023/04/28 11:13:33;;;;;;;14.00;7.60;;;;;;;16.63;41.81;100079.23;219279;1259;139523;-69
2023/04/28 11:18:49;;;;;;;8.00;6.60;;;;;;;16.87;42.39;100075.23;218115;1259;211766;-71
2023/04/28 11:23:57;;;;;;;5.90;5.30;;;;;;;17.31;42.42;100066.41;219167;1257;141635;-71
2023/04/28 11:29:01;;;;;;;6.00;5.30;;;;;;;17.38;41.42;100061.25;218005;1257;140934;-71
2023/04/28 11:34:14;;;;;;;10.00;5.00;;;;;;;17.31;41.32;100059.95;217753;1256;139949;-72
2023/04/28 11:39:33;;;;;;;7.10;6.10;;;;;;;17.22;41.89;100056.13;218140;1256;139743;-72
2023/04/28 11:44:36;;;;;;;10.80;8.00;;;;;;;16.99;41.27;100052.67;217737;1256;139643;-74
2023/04/28 11:49:42;;;;;;;5.70;4.60;;;;;;;16.85;41.77;100044.11;217874;1259;139499;-71
2023/04/28 11:54:53;;;;;;;10.40;7.30;;;;;;;16.94;41.47;100036.52;217776;1257;139215;-72
2023/04/28 12:00:17;;;;;;;6.80;5.50;;;;;;;17.24;40.94;100028.21;218178;1257;139704;-70
2023/04/28 12:05:21;;;;;;;8.50;6.00;;;;;;;16.77;40.67;100029.46;217557;1257;139329;-71
2023/04/28 12:10:24;;;;;;;8.30;5.40;;;;;;;16.62;41.25;100029.11;218085;1257;139426;-73
2023/04/28 12:15:40;;;;;;;7.50;6.20;;;;;;;16.65;41.13;100014.80;218143;1257;139234;-73
2023/04/28 12:20:43;;;;;;;6.00;5.50;;;;;;;16.82;40.83;100005.99;218383;1257;139349;-72
2023/04/28 12:25:47;;;;;;;13.70;5.90;;;;;;;17.13;41.00;100006.40;218536;1257;139465;-73
2023/04/28 12:31:07;;;;;;;5.80;5.10;;;;;;;17.31;40.82;100006.55;217889;1259;140027;-73
2023/04/28 12:36:10;;;;;;;11.60;7.00;;;;;;;17.35;40.19;99995.71;218718;1257;140190;-72
2023/04/28 12:41:14;;;;;;;7.40;6.20;;;;;;;17.38;40.10;99988.38;219138;1256;139495;-73
2023/04/28 12:46:18;;;;;;;7.00;6.00;;;;;;;17.27;39.53;99977.52;217795;1260;139036;-72
2023/04/28 12:51:21;;;;;;;11.30;6.80;;;;;;;17.22;39.78;99971.20;219871;1257;138622;-73
2023/04/28 12:56:25;;;;;;;9.80;6.80;;;;;;;17.13;39.99;99960.51;219404;1257;231030;-72
2023/04/28 13:01:29;;;;;;;7.90;5.70;;;;;;;17.20;39.86;99948.36;218956;1258;139851;-76
2023/04/28 13:06:34;;;;;;;11.00;6.50;;;;;;;17.19;40.40;99951.81;217722;1260;138973;-73
2023/04/28 13:11:38;;;;;;;5.70;5.10;;;;;;;17.44;40.12;99949.16;218495;1257;139650;-75
2023/04/28 13:16:40;;;;;;;7.70;6.20;;;;;;;17.48;39.32;99944.84;217853;1257;139015;-74
2023/04/28 13:21:45;;;;;;;10.00;5.30;;;;;;;17.33;39.15;99940.05;218466;1257;139154;-77
2023/04/28 13:26:52;;;;;;;7.10;5.90;;;;;;;17.14;39.43;99945.31;217111;1257;724247;-77
2023/04/28 13:31:57;;;;;;;5.50;5.00;;;;;;;16.83;39.43;99936.58;217576;1260;140054;-75
2023/04/28 13:37:00;;;;;;;9.00;6.60;;;;;;;16.61;39.83;99930.27;217797;1257;138902;-76
2023/04/28 13:42:02;;;;;;;8.30;5.50;;;;;;;16.30;39.19;99922.34;217759;1260;139941;-75
2023/04/28 13:47:07;;;;;;;7.30;6.30;;;;;;;16.28;39.61;99912.92;217821;1257;139551;-75
2023/04/28 13:52:10;;;;;;;11.80;6.80;;;;;;;16.49;39.28;99904.60;217737;1258;139132;-73
2023/04/28 13:57:12;;;;;;;5.80;5.00;;;;;;;16.72;39.18;99890.17;217762;1257;139402;-75
2023/04/28 14:02:17;;;;;;;18.50;8.90;;;;;;;16.95;38.88;99881.36;217832;1257;139486;-76
2023/04/28 14:07:20;;;;;;;9.00;3.70;;;;;;;17.07;39.54;99883.77;218718;1256;139206;-74
2023/04/28 14:12:23;;;;;;;4.10;3.30;;;;;;;17.21;39.29;99881.98;217502;1257;139077;-73
2023/04/28 14:17:27;;;;;;;11.20;5.60;;;;;;;17.26;38.85;99877.77;217710;1260;139226;-74
2023/04/28 14:22:30;;;;;;;6.50;5.10;;;;;;;17.46;39.05;99870.30;217822;1257;139467;-75
2023/04/28 14:27:32;;;;;;;11.40;5.00;;;;;;;17.48;38.84;99869.00;219431;1257;139455;-76
2023/04/28 14:32:37;;;;;;;15.20;5.50;;;;;;;17.41;38.41;99874.27;217789;1260;152977;-71
2023/04/28 14:37:42;;;;;;;6.80;4.00;;;;;;;17.32;38.71;99870.06;217572;1257;139529;-67
2023/04/28 14:42:45;;;;;;;6.40;4.80;;;;;;;17.35;38.73;99867.61;217724;1257;139536;-71
2023/04/28 14:47:48;;;;;;;5.20;3.80;;;;;;;17.15;37.97;99862.94;217686;1257;140088;-77
2023/04/28 14:52:51;;;;;;;9.50;5.00;;;;;;;16.96;37.97;99855.24;217518;1257;139208;-75
2023/04/28 14:57:53;;;;;;;7.30;5.50;;;;;;;16.94;38.51;99857.61;217651;1257;140689;-72
2023/04/28 15:02:57;;;;;;;10.30;4.20;;;;;;;16.81;38.16;99847.05;218162;1257;139476;-70
2023/04/28 15:07:59;;;;;;;13.20;5.60;;;;;;;16.71;38.76;99847.61;218550;1257;140341;-68
2023/04/28 15:13:02;;;;;;;7.40;4.60;;;;;;;16.61;38.98;99843.28;217757;1259;139729;-69
2023/04/28 15:18:04;;;;;;;4.10;3.50;;;;;;;16.63;39.12;99836.55;217527;1259;139475;-68
2023/04/28 15:23:08;;;;;;;7.60;5.30;;;;;;;16.59;38.75;99830.48;217564;1260;140071;-69
2023/04/28 15:28:10;;;;;;;9.30;4.30;;;;;;;16.48;38.72;99828.77;217429;1257;140672;-71
2023/04/28 15:33:16;;;;;;;8.60;5.00;;;;;;;16.46;38.98;99827.88;217581;1257;139838;-68
2023/04/28 15:38:18;;;;;;;8.90;4.70;;;;;;;16.50;38.91;99827.80;217472;1260;139922;-72
2023/04/28 15:43:21;;;;;;;5.50;3.60;;;;;;;16.47;38.80;99825.34;218155;1257;139408;-71
2023/04/28 15:48:24;;;;;;;4.10;3.70;;;;;;;16.46;38.98;99822.23;217860;1260;139739;-75
2023/04/28 15:53:27;;;;;;;5.10;3.80;;;;;;;16.51;39.13;99815.59;217736;1260;140365;-76
2023/04/28 15:58:32;;;;;;;6.90;3.80;;;;;;;16.43;39.08;99809.73;219397;1257;139250;-72
2023/04/28 16:03:39;;;;;;;9.00;4.10;;;;;;;16.24;38.93;99811.57;217670;1260;140200;-74
2023/04/28 16:08:42;;;;;;;7.50;4.20;;;;;;;15.99;39.02;99809.91;217708;1260;139993;-73
2023/04/28 16:13:48;;;;;;;13.40;5.00;;;;;;;15.79;39.21;99809.80;217678;1256;140670;-70
2023/04/28 16:18:55;;;;;;;6.80;3.50;;;;;;;15.58;39.32;99797.92;218279;1257;141668;-70
2023/04/28 16:23:58;;;;;;;4.50;4.00;;;;;;;15.45;39.66;99796.30;218316;1260;138991;-71
2023/04/28 16:29:01;;;;;;;3.90;3.40;;;;;;;15.41;39.97;99794.73;217450;1260;144063;-71
2023/04/28 16:34:06;;;;;;;5.50;3.20;;;;;;;15.43;40.12;99790.02;220402;1256;139049;-70
2023/04/28 16:39:11;;;;;;;4.60;3.50;;;;;;;15.38;39.81;99783.17;220329;1257;140639;-69
2023/04/28 16:44:18;;;;;;;7.00;4.40;;;;;;;15.36;39.73;99780.42;220415;1258;141337;-68
2023/04/28 16:49:23;;;;;;;5.10;3.90;;;;;;;15.23;39.87;99773.16;217934;1260;140197;-72
2023/04/28 16:54:32;;;;;;;4.40;3.20;;;;;;;15.11;40.70;99766.94;217532;1261;138952;-76
2023/04/28 16:59:41;;;;;;;6.20;4.40;;;;;;;15.03;40.96;99761.00;217899;1260;138623;-73
2023/04/28 17:04:50;;;;;;;5.40;4.20;;;;;;;14.88;41.23;99758.64;219437;1257;140437;-70
2023/04/28 17:09:55;;;;;;;18.20;5.90;;;;;;;14.79;41.61;99753.71;217780;1257;140109;-71
2023/04/28 17:14:59;;;;;;;9.20;4.90;;;;;;;14.71;42.57;99752.64;217943;1257;140134;-70
2023/04/28 17:20:03;;;;;;;12.20;5.50;;;;;;;14.63;43.19;99749.89;217980;1258;139947;-71
2023/04/28 17:25:06;;;;;;;8.20;6.10;;;;;;;14.52;43.82;99744.84;218034;1257;140938;-71
2023/04/28 17:30:13;;;;;;;5.80;5.30;;;;;;;14.38;44.30;99740.34;218456;1257;139369;-71
2023/04/28 17:35:15;;;;;;;5.90;4.10;;;;;;;14.20;45.25;99741.34;218127;1260;139926;-74
2023/04/28 17:40:24;;;;;;;5.40;4.30;;;;;;;14.00;45.26;99741.48;217688;1256;140635;-67
2023/04/28 17:45:28;;;;;;;11.00;4.70;;;;;;;13.75;45.71;99741.42;217610;1257;139454;-70
2023/04/28 17:50:30;;;;;;;5.40;4.30;;;;;;;13.49;46.98;99746.02;217810;1260;139605;-69
2023/04/28 17:55:35;;;;;;;8.20;4.70;;;;;;;13.24;47.92;99745.00;217972;1260;139628;-80
2023/04/28 18:00:40;;;;;;;3.60;3.30;;;;;;;13.00;48.44;99743.00;218456;1256;139481;-68
2023/04/28 18:05:44;;;;;;;4.50;4.10;;;;;;;12.71;49.25;99746.55;217575;1257;138946;-70
2023/04/28 18:10:47;;;;;;;16.70;5.30;;;;;;;12.35;49.64;99746.12;217399;1257;140357;-71
2023/04/28 18:15:49;;;;;;;9.60;5.20;;;;;;;12.12;50.56;99743.71;217311;1258;140443;-71
2023/04/28 18:20:57;;;;;;;12.70;7.50;;;;;;;11.89;50.94;99748.48;218188;1257;140230;-70
2023/04/28 18:26:00;;;;;;;11.80;9.00;;;;;;;11.71;51.23;99750.08;220103;1257;139711;-72
2023/04/28 18:31:06;;;;;;;12.90;8.70;;;;;;;11.58;51.72;99750.82;218318;1258;139674;-68
2023/04/28 18:36:08;;;;;;;8.10;5.90;;;;;;;11.47;52.03;99745.77;219127;1258;139504;-69
2023/04/28 18:41:17;;;;;;;13.90;6.90;;;;;;;11.18;51.74;99748.45;217626;1255;139772;-69
2023/04/28 18:46:21;;;;;;;9.30;7.90;;;;;;;10.97;52.72;99750.11;219962;1257;141002;-71
2023/04/28 18:51:28;;;;;;;12.70;8.50;;;;;;;10.88;53.51;99749.67;218963;1258;139366;-70
2023/04/28 18:56:36;;;;;;;27.10;9.60;;;;;;;10.79;53.82;99753.38;217359;1257;140044;-70
2023/04/28 19:01:43;;;;;;;29.00;12.80;;;;;;;10.67;54.20;99750.27;217866;1260;140499;-69
2023/04/28 19:06:51;;;;;;;21.90;12.60;;;;;;;10.54;54.76;99753.87;218672;1257;140519;-73
2023/04/28 19:11:55;;;;;;;38.50;13.30;;;;;;;10.40;54.88;99747.07;218025;1257;140842;-69
2023/04/28 19:17:01;;;;;;;25.20;14.10;;;;;;;10.27;55.16;99747.48;218670;1257;139452;-70
2023/04/28 19:23:00;;;;;;;14.70;11.20;;;;;;;10.17;55.38;99742.89;218131;1260;139584;-72
2023/04/28 19:28:13;;;;;;;13.60;7.80;;;;;;;10.01;54.69;99742.99;217793;1257;140735;-70
2023/04/28 19:33:17;;;;;;;14.40;10.00;;;;;;;9.87;54.36;99735.67;218078;1258;140157;-70
2023/04/28 19:38:21;;;;;;;11.60;9.10;;;;;;;9.80;54.34;99735.20;217427;1260;139266;-75
2023/04/28 19:43:25;;;;;;;18.10;12.00;;;;;;;9.77;54.26;99739.45;217874;1257;139402;-74
2023/04/28 19:48:28;;;;;;;13.30;9.40;;;;;;;9.75;54.18;99742.60;218270;1257;139422;-69
2023/04/28 19:53:39;;;;;;;12.60;9.20;;;;;;;9.71;53.90;99743.48;218042;1257;139861;-72
2023/04/28 19:58:48;;;;;;;17.80;11.40;;;;;;;9.68;53.90;99744.92;217558;1257;138812;-72
2023/04/28 20:03:59;;;;;;;13.60;9.20;;;;;;;9.60;53.76;99745.08;218642;1259;140534;-69
2023/04/28 20:09:05;;;;;;;20.20;14.10;;;;;;;9.53;53.75;99745.38;217707;1256;141341;-70
2023/04/28 20:14:10;;;;;;;16.70;11.60;;;;;;;9.45;54.02;99748.66;217611;1257;139096;-69
2023/04/28 20:19:13;;;;;;;13.20;10.40;;;;;;;9.36;54.23;99749.97;217615;1256;139543;-68
2023/04/28 20:24:19;;;;;;;14.60;10.90;;;;;;;9.29;54.10;99747.24;218923;1256;139746;-69
2023/04/28 20:29:23;;;;;;;20.00;10.40;;;;;;;9.23;54.25;99752.31;218422;1258;139775;-69
2023/04/28 20:34:26;;;;;;;12.40;10.90;;;;;;;9.19;54.33;99749.34;219722;1257;139824;-70
2023/04/28 20:39:28;;;;;;;15.40;10.30;;;;;;;9.15;54.57;99751.27;220584;1256;140038;-69
2023/04/28 20:44:31;;;;;;;16.80;9.70;;;;;;;9.10;54.55;99751.73;218100;1256;139950;-67
2023/04/28 20:49:36;;;;;;;18.30;13.50;;;;;;;9.05;54.82;99749.86;218653;1256;139547;-66
2023/04/28 20:54:42;;;;;;;15.70;12.10;;;;;;;9.00;54.84;99750.20;218055;1256;139399;-68
2023/04/28 20:59:46;;;;;;;17.80;11.00;;;;;;;8.96;55.19;99752.34;217763;1256;140703;-69
2023/04/28 21:04:49;;;;;;;24.70;11.50;;;;;;;8.93;55.50;99749.26;218781;1256;139806;-66
2023/04/28 21:09:52;;;;;;;17.80;12.90;;;;;;;8.91;55.63;99748.14;218000;1260;141326;-67
2023/04/28 21:14:58;;;;;;;15.40;11.50;;;;;;;8.88;55.56;99752.11;218405;1257;139362;-66
2023/04/28 21:20:02;;;;;;;16.30;12.10;;;;;;;8.83;55.78;99746.13;218055;1260;141574;-66
2023/04/28 21:25:07;;;;;;;15.80;10.30;;;;;;;8.79;56.07;99742.39;217705;1260;139208;-74
2023/04/28 21:30:11;;;;;;;19.50;11.20;;;;;;;8.71;56.04;99738.98;218197;1257;140239;-70
2023/04/28 21:35:15;;;;;;;16.30;12.00;;;;;;;8.63;55.86;99734.17;217932;1257;139002;-72
2023/04/28 21:40:19;;;;;;;19.90;11.90;;;;;;;8.54;55.80;99732.04;217866;1256;139997;-68
2023/04/28 21:45:22;;;;;;;18.10;13.00;;;;;;;8.46;56.01;99730.77;217945;1257;140308;-68
2023/04/28 21:50:26;;;;;;;23.40;13.30;;;;;;;8.38;56.44;99726.59;217795;1257;139942;-68
2023/04/28 21:55:30;;;;;;;21.10;12.20;;;;;;;8.32;56.22;99727.01;218129;1257;140482;-69
2023/04/28 22:00:42;;;;;;;19.50;12.00;;;;;;;8.26;56.25;99728.37;218431;1256;139530;-70
2023/04/28 22:05:46;;;;;;;20.70;11.20;;;;;;;8.21;56.71;99727.38;219133;1256;140236;-68
2023/04/28 22:10:48;;;;;;;18.50;11.60;;;;;;;8.15;56.77;99726.20;220582;1256;140411;-67
2023/04/28 22:15:52;;;;;;;13.40;10.90;;;;;;;8.10;56.47;99725.14;217978;1256;140822;-68
2023/04/28 22:20:54;;;;;;;16.60;12.10;;;;;;;8.07;56.75;99719.81;220479;1256;139151;-67
2023/04/28 22:25:58;;;;;;;28.90;13.60;;;;;;;8.06;57.03;99722.52;218279;1256;141366;-67
2023/04/28 22:31:01;;;;;;;14.70;11.00;;;;;;;8.05;56.80;99716.11;220462;1256;140650;-67
2023/04/28 22:36:05;;;;;;;17.00;10.60;;;;;;;8.06;57.11;99709.77;219955;1256;139569;-68
2023/04/28 22:41:07;;;;;;;20.50;10.80;;;;;;;8.07;56.83;99705.55;217759;1256;139406;-69
2023/04/28 22:46:10;;;;;;;16.80;10.30;;;;;;;8.04;57.02;99704.40;218385;1257;139288;-69
2023/04/28 22:51:14;;;;;;;12.50;9.30;;;;;;;8.00;57.06;99704.59;218928;1259;139939;-69
2023/04/28 22:56:18;;;;;;;14.00;11.30;;;;;;;7.98;57.18;99705.15;217889;1257;140924;-68
2023/04/28 23:01:22;;;;;;;15.70;12.50;;;;;;;7.96;57.09;99705.16;218456;1257;139510;-68